sensor_id;sensor_type;location;lat;lon;timestamp;P1;durP1;ratioP1;P2;durP2;ratioP2
73172;SDS011;61388;54.962;73.394;2022-10-16T00:01:13;30.80;;;19.25;;
73172;SDS011;61388;54.962;73.394;2022-10-16T00:03:49;26.73;;;16.20;;
73172;SDS011;61388;54.962;73.394;2022-10-16T00:06:16;28.85;;;19.30;;
73172;SDS011;61388;54.962;73.394;2022-10-16T00:08:42;25.17;;;18.23;;
73172;SDS011;61388;54.962;73.394;2022-10-16T00:11:14;30.58;;;19.95;;
73172;SDS011;61388;54.962;73.394;2022-10-16T00:13:40;26.90;;;20.15;;
73172;SDS011;61388;54.962;73.394;2022-10-16T00:16:07;36.25;;;26.30;;
73172;SDS011;61388;54.962;73.394;2022-10-16T00:18:34;34.38;;;23.63;;
73172;SDS011;61388;54.962;73.394;2022-10-16T00:21:04;27.53;;;20.87;;
73172;SDS011;61388;54.962;73.394;2022-10-16T00:23:35;25.13;;;16.98;;
73172;SDS011;61388;54.962;73.394;2022-10-16T00:26:12;30.05;;;16.88;;
73172;SDS011;61388;54.962;73.394;2022-10-16T00:28:49;33.15;;;17.35;;
73172;SDS011;61388;54.962;73.394;2022-10-16T00:31:16;27.63;;;18.02;;
73172;SDS011;61388;54.962;73.394;2022-10-16T00:33:42;30.00;;;16.37;;
73172;SDS011;61388;54.962;73.394;2022-10-16T00:36:12;27.42;;;19.05;;
73172;SDS011;61388;54.962;73.394;2022-10-16T00:38:38;29.27;;;21.00;;
73172;SDS011;61388;54.962;73.394;2022-10-16T00:41:05;30.23;;;25.42;;
73172;SDS011;61388;54.962;73.394;2022-10-16T00:43:38;36.80;;;33.10;;
73172;SDS011;61388;54.962;73.394;2022-10-16T00:46:08;29.90;;;26.85;;
73172;SDS011;61388;54.962;73.394;2022-10-16T00:48:35;30.58;;;23.73;;
73172;SDS011;61388;54.962;73.394;2022-10-16T00:51:01;29.42;;;25.08;;
73172;SDS011;61388;54.962;73.394;2022-10-16T00:53:32;36.22;;;32.25;;
73172;SDS011;61388;54.962;73.394;2022-10-16T00:56:05;42.40;;;33.97;;
73172;SDS011;61388;54.962;73.394;2022-10-16T00:58:39;34.42;;;28.35;;
73172;SDS011;61388;54.962;73.394;2022-10-16T01:01:05;32.55;;;29.13;;
73172;SDS011;61388;54.962;73.394;2022-10-16T01:03:38;28.90;;;25.80;;
73172;SDS011;61388;54.962;73.394;2022-10-16T01:06:28;20.90;;;15.75;;
73172;SDS011;61388;54.962;73.394;2022-10-16T01:11:44;30.15;;;25.25;;
73172;SDS011;61388;54.962;73.394;2022-10-16T01:14:13;30.10;;;20.45;;
73172;SDS011;61388;54.962;73.394;2022-10-16T01:16:48;32.80;;;24.58;;
73172;SDS011;61388;54.962;73.394;2022-10-16T01:19:36;35.25;;;27.20;;
73172;SDS011;61388;54.962;73.394;2022-10-16T01:22:04;29.20;;;24.80;;
73172;SDS011;61388;54.962;73.394;2022-10-16T01:24:33;27.45;;;18.83;;
73172;SDS011;61388;54.962;73.394;2022-10-16T01:29:36;30.92;;;23.48;;
73172;SDS011;61388;54.962;73.394;2022-10-16T01:32:06;27.88;;;24.95;;
73172;SDS011;61388;54.962;73.394;2022-10-16T01:34:37;27.40;;;24.53;;
73172;SDS011;61388;54.962;73.394;2022-10-16T01:37:05;65.82;;;42.13;;
73172;SDS011;61388;54.962;73.394;2022-10-16T01:39:33;30.42;;;25.90;;
73172;SDS011;61388;54.962;73.394;2022-10-16T01:42:03;22.00;;;18.55;;
73172;SDS011;61388;54.962;73.394;2022-10-16T01:44:31;26.85;;;22.35;;
73172;SDS011;61388;54.962;73.394;2022-10-16T01:46:58;32.13;;;28.63;;
73172;SDS011;61388;54.962;73.394;2022-10-16T01:49:25;21.88;;;15.02;;
73172;SDS011;61388;54.962;73.394;2022-10-16T01:51:53;35.58;;;25.17;;
73172;SDS011;61388;54.962;73.394;2022-10-16T01:54:20;21.00;;;16.60;;
73172;SDS011;61388;54.962;73.394;2022-10-16T01:56:47;24.75;;;19.33;;
73172;SDS011;61388;54.962;73.394;2022-10-16T01:59:25;29.57;;;15.03;;
73172;SDS011;61388;54.962;73.394;2022-10-16T02:01:52;28.70;;;16.50;;
73172;SDS011;61388;54.962;73.394;2022-10-16T02:04:38;23.95;;;15.27;;
73172;SDS011;61388;54.962;73.394;2022-10-16T02:07:05;28.55;;;18.67;;
73172;SDS011;61388;54.962;73.394;2022-10-16T02:09:32;28.33;;;17.13;;
73172;SDS011;61388;54.962;73.394;2022-10-16T02:11:59;26.57;;;16.87;;
73172;SDS011;61388;54.962;73.394;2022-10-16T02:14:28;25.92;;;15.60;;
73172;SDS011;61388;54.962;73.394;2022-10-16T02:16:54;39.13;;;15.10;;
73172;SDS011;61388;54.962;73.394;2022-10-16T02:19:20;26.00;;;18.45;;
73172;SDS011;61388;54.962;73.394;2022-10-16T02:21:58;27.00;;;16.98;;
73172;SDS011;61388;54.962;73.394;2022-10-16T02:24:28;27.77;;;19.03;;
73172;SDS011;61388;54.962;73.394;2022-10-16T02:29:34;23.25;;;17.15;;
73172;SDS011;61388;54.962;73.394;2022-10-16T02:32:01;29.73;;;14.15;;
73172;SDS011;61388;54.962;73.394;2022-10-16T02:34:29;21.77;;;11.70;;
73172;SDS011;61388;54.962;73.394;2022-10-16T02:36:55;22.83;;;11.87;;
73172;SDS011;61388;54.962;73.394;2022-10-16T02:39:23;21.45;;;13.10;;
73172;SDS011;61388;54.962;73.394;2022-10-16T02:41:49;25.35;;;13.15;;
73172;SDS011;61388;54.962;73.394;2022-10-16T02:44:15;23.90;;;13.65;;
73172;SDS011;61388;54.962;73.394;2022-10-16T02:46:41;25.03;;;13.60;;
73172;SDS011;61388;54.962;73.394;2022-10-16T02:49:07;31.02;;;14.20;;
73172;SDS011;61388;54.962;73.394;2022-10-16T02:51:33;27.50;;;13.40;;
73172;SDS011;61388;54.962;73.394;2022-10-16T02:54:04;25.30;;;15.18;;
73172;SDS011;61388;54.962;73.394;2022-10-16T02:56:30;27.65;;;16.88;;
73172;SDS011;61388;54.962;73.394;2022-10-16T02:59:06;37.55;;;20.85;;
73172;SDS011;61388;54.962;73.394;2022-10-16T03:01:42;30.48;;;21.35;;
73172;SDS011;61388;54.962;73.394;2022-10-16T03:04:08;29.92;;;24.05;;
73172;SDS011;61388;54.962;73.394;2022-10-16T03:06:36;27.10;;;22.25;;
73172;SDS011;61388;54.962;73.394;2022-10-16T03:09:06;29.50;;;23.77;;
73172;SDS011;61388;54.962;73.394;2022-10-16T03:11:32;31.48;;;23.17;;
73172;SDS011;61388;54.962;73.394;2022-10-16T03:14:03;32.47;;;24.48;;
73172;SDS011;61388;54.962;73.394;2022-10-16T03:16:36;34.00;;;23.60;;
73172;SDS011;61388;54.962;73.394;2022-10-16T03:19:03;30.42;;;20.27;;
73172;SDS011;61388;54.962;73.394;2022-10-16T03:21:28;26.20;;;19.17;;
73172;SDS011;61388;54.962;73.394;2022-10-16T03:23:55;34.67;;;18.08;;
73172;SDS011;61388;54.962;73.394;2022-10-16T03:26:21;23.65;;;16.65;;
73172;SDS011;61388;54.962;73.394;2022-10-16T03:28:47;26.13;;;16.88;;
73172;SDS011;61388;54.962;73.394;2022-10-16T03:31:19;30.10;;;16.60;;
73172;SDS011;61388;54.962;73.394;2022-10-16T03:33:45;26.13;;;17.23;;
73172;SDS011;61388;54.962;73.394;2022-10-16T03:36:11;37.40;;;25.83;;
73172;SDS011;61388;54.962;73.394;2022-10-16T03:38:37;40.35;;;24.75;;
73172;SDS011;61388;54.962;73.394;2022-10-16T03:41:03;33.17;;;22.60;;
73172;SDS011;61388;54.962;73.394;2022-10-16T03:43:29;33.60;;;23.40;;
73172;SDS011;61388;54.962;73.394;2022-10-16T03:45:55;29.35;;;22.30;;
73172;SDS011;61388;54.962;73.394;2022-10-16T03:48:21;29.80;;;19.73;;
73172;SDS011;61388;54.962;73.394;2022-10-16T03:50:52;34.92;;;24.98;;
73172;SDS011;61388;54.962;73.394;2022-10-16T03:53:18;32.70;;;24.23;;
73172;SDS011;61388;54.962;73.394;2022-10-16T03:55:44;32.70;;;21.57;;
73172;SDS011;61388;54.962;73.394;2022-10-16T03:58:15;34.28;;;16.73;;
73172;SDS011;61388;54.962;73.394;2022-10-16T04:00:42;29.98;;;18.10;;
73172;SDS011;61388;54.962;73.394;2022-10-16T04:03:08;38.85;;;16.85;;
73172;SDS011;61388;54.962;73.394;2022-10-16T04:05:34;35.30;;;17.90;;
73172;SDS011;61388;54.962;73.394;2022-10-16T04:08:01;29.20;;;18.27;;
73172;SDS011;61388;54.962;73.394;2022-10-16T04:10:37;34.80;;;19.20;;
73172;SDS011;61388;54.962;73.394;2022-10-16T04:13:07;31.48;;;17.80;;
73172;SDS011;61388;54.962;73.394;2022-10-16T04:15:44;33.65;;;16.60;;
73172;SDS011;61388;54.962;73.394;2022-10-16T04:18:10;30.00;;;16.60;;
73172;SDS011;61388;54.962;73.394;2022-10-16T04:20:36;30.53;;;18.43;;
73172;SDS011;61388;54.962;73.394;2022-10-16T04:23:02;23.25;;;16.17;;
73172;SDS011;61388;54.962;73.394;2022-10-16T04:25:28;29.42;;;25.35;;
73172;SDS011;61388;54.962;73.394;2022-10-16T04:27:54;26.20;;;19.60;;
73172;SDS011;61388;54.962;73.394;2022-10-16T04:30:21;24.60;;;11.43;;
73172;SDS011;61388;54.962;73.394;2022-10-16T04:32:50;19.55;;;10.05;;
73172;SDS011;61388;54.962;73.394;2022-10-16T04:35:18;22.00;;;10.98;;
73172;SDS011;61388;54.962;73.394;2022-10-16T04:37:45;15.73;;;8.40;;
73172;SDS011;61388;54.962;73.394;2022-10-16T04:40:11;19.88;;;9.13;;
73172;SDS011;61388;54.962;73.394;2022-10-16T04:42:46;24.43;;;9.43;;
73172;SDS011;61388;54.962;73.394;2022-10-16T04:45:12;19.75;;;9.02;;
73172;SDS011;61388;54.962;73.394;2022-10-16T04:47:38;21.58;;;8.00;;
73172;SDS011;61388;54.962;73.394;2022-10-16T04:50:11;17.55;;;8.38;;
73172;SDS011;61388;54.962;73.394;2022-10-16T04:52:37;14.70;;;6.40;;
73172;SDS011;61388;54.962;73.394;2022-10-16T04:55:03;13.97;;;6.57;;
73172;SDS011;61388;54.962;73.394;2022-10-16T04:57:29;14.57;;;7.10;;
73172;SDS011;61388;54.962;73.394;2022-10-16T05:00:04;17.90;;;7.55;;
73172;SDS011;61388;54.962;73.394;2022-10-16T05:02:31;18.10;;;8.18;;
73172;SDS011;61388;54.962;73.394;2022-10-16T05:04:58;17.30;;;7.45;;
73172;SDS011;61388;54.962;73.394;2022-10-16T05:07:25;14.90;;;7.07;;
73172;SDS011;61388;54.962;73.394;2022-10-16T05:09:51;15.95;;;7.22;;
73172;SDS011;61388;54.962;73.394;2022-10-16T05:12:17;17.73;;;7.22;;
73172;SDS011;61388;54.962;73.394;2022-10-16T05:14:43;14.98;;;7.25;;
73172;SDS011;61388;54.962;73.394;2022-10-16T05:17:20;19.60;;;7.82;;
73172;SDS011;61388;54.962;73.394;2022-10-16T05:19:45;17.90;;;8.10;;
73172;SDS011;61388;54.962;73.394;2022-10-16T05:22:16;18.45;;;8.02;;
73172;SDS011;61388;54.962;73.394;2022-10-16T05:24:42;19.63;;;8.93;;
73172;SDS011;61388;54.962;73.394;2022-10-16T05:27:13;15.13;;;7.35;;
73172;SDS011;61388;54.962;73.394;2022-10-16T05:29:45;17.48;;;7.65;;
73172;SDS011;61388;54.962;73.394;2022-10-16T05:32:12;17.37;;;8.03;;
73172;SDS011;61388;54.962;73.394;2022-10-16T05:34:39;17.08;;;7.82;;
73172;SDS011;61388;54.962;73.394;2022-10-16T05:37:05;15.82;;;7.90;;
73172;SDS011;61388;54.962;73.394;2022-10-16T05:39:31;21.48;;;8.50;;
73172;SDS011;61388;54.962;73.394;2022-10-16T05:41:57;19.02;;;8.32;;
73172;SDS011;61388;54.962;73.394;2022-10-16T05:44:23;23.87;;;8.47;;
73172;SDS011;61388;54.962;73.394;2022-10-16T05:46:49;20.10;;;8.30;;
73172;SDS011;61388;54.962;73.394;2022-10-16T05:49:15;16.67;;;8.27;;
73172;SDS011;61388;54.962;73.394;2022-10-16T05:51:41;16.10;;;8.55;;
73172;SDS011;61388;54.962;73.394;2022-10-16T05:54:08;20.05;;;8.30;;
73172;SDS011;61388;54.962;73.394;2022-10-16T05:56:36;23.37;;;9.13;;
73172;SDS011;61388;54.962;73.394;2022-10-16T05:59:14;19.13;;;9.05;;
73172;SDS011;61388;54.962;73.394;2022-10-16T06:01:41;27.15;;;8.77;;
73172;SDS011;61388;54.962;73.394;2022-10-16T06:04:08;21.95;;;9.18;;
73172;SDS011;61388;54.962;73.394;2022-10-16T06:06:34;23.55;;;9.00;;
73172;SDS011;61388;54.962;73.394;2022-10-16T06:09:02;21.20;;;9.30;;
73172;SDS011;61388;54.962;73.394;2022-10-16T06:11:29;21.00;;;11.00;;
73172;SDS011;61388;54.962;73.394;2022-10-16T06:13:56;20.40;;;9.90;;
73172;SDS011;61388;54.962;73.394;2022-10-16T06:16:23;23.75;;;10.35;;
73172;SDS011;61388;54.962;73.394;2022-10-16T06:18:53;22.30;;;10.70;;
73172;SDS011;61388;54.962;73.394;2022-10-16T06:21:20;42.30;;;9.93;;
73172;SDS011;61388;54.962;73.394;2022-10-16T06:23:47;20.80;;;10.57;;
73172;SDS011;61388;54.962;73.394;2022-10-16T06:26:23;24.65;;;9.98;;
73172;SDS011;61388;54.962;73.394;2022-10-16T06:28:50;19.63;;;9.48;;
73172;SDS011;61388;54.962;73.394;2022-10-16T06:31:21;23.20;;;9.90;;
73172;SDS011;61388;54.962;73.394;2022-10-16T06:33:50;17.33;;;8.73;;
73172;SDS011;61388;54.962;73.394;2022-10-16T06:36:16;21.00;;;9.50;;
73172;SDS011;61388;54.962;73.394;2022-10-16T06:38:43;20.70;;;9.75;;
73172;SDS011;61388;54.962;73.394;2022-10-16T06:41:11;26.52;;;9.75;;
73172;SDS011;61388;54.962;73.394;2022-10-16T06:43:38;26.25;;;11.75;;
73172;SDS011;61388;54.962;73.394;2022-10-16T06:46:05;20.40;;;10.27;;
73172;SDS011;61388;54.962;73.394;2022-10-16T06:48:33;26.15;;;11.70;;
73172;SDS011;61388;54.962;73.394;2022-10-16T06:51:11;26.15;;;11.65;;
73172;SDS011;61388;54.962;73.394;2022-10-16T06:53:40;25.95;;;10.55;;
73172;SDS011;61388;54.962;73.394;2022-10-16T06:56:14;24.52;;;10.80;;
73172;SDS011;61388;54.962;73.394;2022-10-16T06:58:46;26.63;;;10.67;;
73172;SDS011;61388;54.962;73.394;2022-10-16T07:01:18;22.52;;;11.40;;
73172;SDS011;61388;54.962;73.394;2022-10-16T07:03:47;30.30;;;12.55;;
73172;SDS011;61388;54.962;73.394;2022-10-16T07:06:14;21.55;;;10.77;;
73172;SDS011;61388;54.962;73.394;2022-10-16T07:08:41;23.05;;;10.45;;
73172;SDS011;61388;54.962;73.394;2022-10-16T07:11:15;13.90;;;6.90;;
73172;SDS011;61388;54.962;73.394;2022-10-16T07:13:42;17.38;;;7.85;;
73172;SDS011;61388;54.962;73.394;2022-10-16T07:16:16;13.73;;;8.02;;
73172;SDS011;61388;54.962;73.394;2022-10-16T07:18:43;16.27;;;7.00;;
73172;SDS011;61388;54.962;73.394;2022-10-16T07:21:14;12.23;;;5.85;;
73172;SDS011;61388;54.962;73.394;2022-10-16T07:23:40;12.00;;;5.43;;
73172;SDS011;61388;54.962;73.394;2022-10-16T07:26:06;12.15;;;5.95;;
73172;SDS011;61388;54.962;73.394;2022-10-16T07:28:33;19.90;;;6.65;;
73172;SDS011;61388;54.962;73.394;2022-10-16T07:31:12;12.05;;;6.00;;
73172;SDS011;61388;54.962;73.394;2022-10-16T07:33:39;14.40;;;5.95;;
73172;SDS011;61388;54.962;73.394;2022-10-16T07:36:05;11.23;;;6.50;;
73172;SDS011;61388;54.962;73.394;2022-10-16T07:38:32;16.83;;;8.60;;
73172;SDS011;61388;54.962;73.394;2022-10-16T07:40:58;11.30;;;6.30;;
73172;SDS011;61388;54.962;73.394;2022-10-16T07:43:25;12.70;;;6.18;;
73172;SDS011;61388;54.962;73.394;2022-10-16T07:45:52;13.82;;;6.57;;
73172;SDS011;61388;54.962;73.394;2022-10-16T07:48:18;10.70;;;6.30;;
73172;SDS011;61388;54.962;73.394;2022-10-16T07:50:45;12.75;;;5.50;;
73172;SDS011;61388;54.962;73.394;2022-10-16T07:53:11;16.08;;;8.48;;
73172;SDS011;61388;54.962;73.394;2022-10-16T07:55:37;10.32;;;6.68;;
73172;SDS011;61388;54.962;73.394;2022-10-16T07:58:04;14.63;;;8.13;;
73172;SDS011;61388;54.962;73.394;2022-10-16T08:00:30;12.25;;;6.00;;
73172;SDS011;61388;54.962;73.394;2022-10-16T08:02:56;13.30;;;5.90;;
73172;SDS011;61388;54.962;73.394;2022-10-16T08:05:26;14.00;;;7.47;;
73172;SDS011;61388;54.962;73.394;2022-10-16T08:08:02;14.48;;;7.82;;
73172;SDS011;61388;54.962;73.394;2022-10-16T08:10:28;13.93;;;7.10;;
73172;SDS011;61388;54.962;73.394;2022-10-16T08:12:59;15.65;;;8.00;;
73172;SDS011;61388;54.962;73.394;2022-10-16T08:15:35;17.80;;;8.20;;
73172;SDS011;61388;54.962;73.394;2022-10-16T08:18:12;15.82;;;7.40;;
73172;SDS011;61388;54.962;73.394;2022-10-16T08:20:39;19.35;;;8.43;;
73172;SDS011;61388;54.962;73.394;2022-10-16T08:23:05;12.82;;;7.30;;
73172;SDS011;61388;54.962;73.394;2022-10-16T08:25:40;19.27;;;7.85;;
73172;SDS011;61388;54.962;73.394;2022-10-16T08:28:10;13.23;;;7.38;;
73172;SDS011;61388;54.962;73.394;2022-10-16T08:30:36;17.30;;;10.30;;
73172;SDS011;61388;54.962;73.394;2022-10-16T08:33:02;19.45;;;11.95;;
73172;SDS011;61388;54.962;73.394;2022-10-16T08:35:28;20.27;;;10.85;;
73172;SDS011;61388;54.962;73.394;2022-10-16T08:38:03;16.20;;;8.20;;
73172;SDS011;61388;54.962;73.394;2022-10-16T08:40:30;17.08;;;9.23;;
73172;SDS011;61388;54.962;73.394;2022-10-16T08:50:22;20.33;;;8.82;;
73172;SDS011;61388;54.962;73.394;2022-10-16T08:52:54;23.40;;;15.40;;
73172;SDS011;61388;54.962;73.394;2022-10-16T08:57:52;38.17;;;16.75;;
73172;SDS011;61388;54.962;73.394;2022-10-16T09:00:18;28.73;;;18.40;;
73172;SDS011;61388;54.962;73.394;2022-10-16T09:10:26;29.55;;;19.90;;
73172;SDS011;61388;54.962;73.394;2022-10-16T09:15:40;28.45;;;21.90;;
73172;SDS011;61388;54.962;73.394;2022-10-16T09:18:14;24.67;;;18.20;;
73172;SDS011;61388;54.962;73.394;2022-10-16T09:20:45;22.75;;;16.88;;
73172;SDS011;61388;54.962;73.394;2022-10-16T09:23:19;27.92;;;24.38;;
73172;SDS011;61388;54.962;73.394;2022-10-16T09:25:46;28.75;;;18.80;;
73172;SDS011;61388;54.962;73.394;2022-10-16T09:28:14;24.05;;;11.30;;
73172;SDS011;61388;54.962;73.394;2022-10-16T09:30:46;28.52;;;21.65;;
73172;SDS011;61388;54.962;73.394;2022-10-16T09:33:14;24.17;;;16.13;;
73172;SDS011;61388;54.962;73.394;2022-10-16T09:38:06;40.60;;;37.08;;
73172;SDS011;61388;54.962;73.394;2022-10-16T09:40:33;26.08;;;23.02;;
73172;SDS011;61388;54.962;73.394;2022-10-16T09:43:18;21.33;;;11.13;;
73172;SDS011;61388;54.962;73.394;2022-10-16T09:46:02;15.73;;;9.63;;
73172;SDS011;61388;54.962;73.394;2022-10-16T09:53:54;20.08;;;12.02;;
73172;SDS011;61388;54.962;73.394;2022-10-16T09:56:25;21.95;;;11.57;;
73172;SDS011;61388;54.962;73.394;2022-10-16T09:58:52;24.85;;;10.10;;
73172;SDS011;61388;54.962;73.394;2022-10-16T10:01:18;19.63;;;10.60;;
73172;SDS011;61388;54.962;73.394;2022-10-16T10:03:55;29.73;;;17.75;;
73172;SDS011;61388;54.962;73.394;2022-10-16T10:06:44;22.90;;;11.18;;
73172;SDS011;61388;54.962;73.394;2022-10-16T10:11:49;17.65;;;9.93;;
73172;SDS011;61388;54.962;73.394;2022-10-16T10:14:27;20.03;;;17.20;;
73172;SDS011;61388;54.962;73.394;2022-10-16T10:17:07;22.73;;;17.13;;
73172;SDS011;61388;54.962;73.394;2022-10-16T10:19:41;19.85;;;15.82;;
73172;SDS011;61388;54.962;73.394;2022-10-16T10:22:27;13.25;;;9.48;;
73172;SDS011;61388;54.962;73.394;2022-10-16T10:24:55;14.02;;;9.70;;
73172;SDS011;61388;54.962;73.394;2022-10-16T10:27:22;41.40;;;38.47;;
73172;SDS011;61388;54.962;73.394;2022-10-16T10:30:05;16.17;;;9.25;;
73172;SDS011;61388;54.962;73.394;2022-10-16T10:35:13;20.50;;;16.60;;
73172;SDS011;61388;54.962;73.394;2022-10-16T10:37:51;15.07;;;12.57;;
73172;SDS011;61388;54.962;73.394;2022-10-16T10:43:19;17.77;;;14.35;;
73172;SDS011;61388;54.962;73.394;2022-10-16T10:45:50;19.15;;;10.82;;
73172;SDS011;61388;54.962;73.394;2022-10-16T10:51:01;25.90;;;20.58;;
73172;SDS011;61388;54.962;73.394;2022-10-16T10:53:35;24.13;;;21.40;;
73172;SDS011;61388;54.962;73.394;2022-10-16T10:56:09;29.83;;;25.15;;
73172;SDS011;61388;54.962;73.394;2022-10-16T11:01:09;60.00;;;55.40;;
73172;SDS011;61388;54.962;73.394;2022-10-16T11:03:42;25.63;;;22.13;;
73172;SDS011;61388;54.962;73.394;2022-10-16T11:06:22;23.37;;;20.93;;
73172;SDS011;61388;54.962;73.394;2022-10-16T11:08:51;26.38;;;18.60;;
73172;SDS011;61388;54.962;73.394;2022-10-16T11:11:32;25.92;;;20.00;;
73172;SDS011;61388;54.962;73.394;2022-10-16T11:14:11;48.53;;;44.75;;
73172;SDS011;61388;54.962;73.394;2022-10-16T11:16:42;23.45;;;16.77;;
73172;SDS011;61388;54.962;73.394;2022-10-16T11:19:28;51.60;;;45.93;;
73172;SDS011;61388;54.962;73.394;2022-10-16T11:25:28;70.78;;;65.05;;
73172;SDS011;61388;54.962;73.394;2022-10-16T11:27:25;69.93;;;63.40;;
73172;SDS011;61388;54.962;73.394;2022-10-16T11:29:57;67.80;;;61.03;;
73172;SDS011;61388;54.962;73.394;2022-10-16T11:32:28;69.70;;;63.73;;
73172;SDS011;61388;54.962;73.394;2022-10-16T11:34:59;60.72;;;54.70;;
73172;SDS011;61388;54.962;73.394;2022-10-16T11:37:28;79.55;;;72.65;;
73172;SDS011;61388;54.962;73.394;2022-10-16T11:39:58;82.22;;;74.03;;
73172;SDS011;61388;54.962;73.394;2022-10-16T11:42:31;74.53;;;67.25;;
73172;SDS011;61388;54.962;73.394;2022-10-16T11:47:44;79.60;;;72.00;;
73172;SDS011;61388;54.962;73.394;2022-10-16T11:50:18;68.68;;;53.97;;
73172;SDS011;61388;54.962;73.394;2022-10-16T11:55:33;57.90;;;52.45;;
73172;SDS011;61388;54.962;73.394;2022-10-16T11:58:03;64.40;;;59.13;;
73172;SDS011;61388;54.962;73.394;2022-10-16T12:00:37;84.90;;;78.05;;
73172;SDS011;61388;54.962;73.394;2022-10-16T12:03:27;77.70;;;71.13;;
73172;SDS011;61388;54.962;73.394;2022-10-16T12:08:25;59.08;;;53.95;;
73172;SDS011;61388;54.962;73.394;2022-10-16T12:10:52;50.97;;;46.47;;
73172;SDS011;61388;54.962;73.394;2022-10-16T12:16:03;63.85;;;58.42;;
73172;SDS011;61388;54.962;73.394;2022-10-16T12:18:30;68.57;;;62.90;;
73172;SDS011;61388;54.962;73.394;2022-10-16T12:20:57;68.55;;;62.90;;
73172;SDS011;61388;54.962;73.394;2022-10-16T12:23:54;110.07;;;101.53;;
73172;SDS011;61388;54.962;73.394;2022-10-16T12:26:24;122.70;;;112.55;;
73172;SDS011;61388;54.962;73.394;2022-10-16T12:28:50;119.22;;;108.97;;
73172;SDS011;61388;54.962;73.394;2022-10-16T12:31:17;38.03;;;25.20;;
73172;SDS011;61388;54.962;73.394;2022-10-16T12:33:52;53.38;;;43.05;;
73172;SDS011;61388;54.962;73.394;2022-10-16T12:36:52;53.83;;;38.77;;
73172;SDS011;61388;54.962;73.394;2022-10-16T12:39:23;39.78;;;32.78;;
73172;SDS011;61388;54.962;73.394;2022-10-16T12:42:00;50.00;;;44.88;;
73172;SDS011;61388;54.962;73.394;2022-10-16T12:44:27;36.08;;;29.00;;
73172;SDS011;61388;54.962;73.394;2022-10-16T12:47:18;40.22;;;29.83;;
73172;SDS011;61388;54.962;73.394;2022-10-16T12:49:48;73.03;;;50.10;;
73172;SDS011;61388;54.962;73.394;2022-10-16T12:54:59;70.20;;;47.83;;
73172;SDS011;61388;54.962;73.394;2022-10-16T12:57:35;51.58;;;40.55;;
73172;SDS011;61388;54.962;73.394;2022-10-16T13:08:29;50.47;;;35.90;;
73172;SDS011;61388;54.962;73.394;2022-10-16T13:16:09;42.70;;;36.90;;
73172;SDS011;61388;54.962;73.394;2022-10-16T13:23:55;39.95;;;35.88;;
73172;SDS011;61388;54.962;73.394;2022-10-16T13:28:50;28.63;;;21.40;;
73172;SDS011;61388;54.962;73.394;2022-10-16T13:31:20;30.30;;;19.17;;
73172;SDS011;61388;54.962;73.394;2022-10-16T13:33:50;26.33;;;16.13;;
73172;SDS011;61388;54.962;73.394;2022-10-16T13:36:24;41.88;;;30.63;;
73172;SDS011;61388;54.962;73.394;2022-10-16T13:41:34;37.43;;;32.43;;
73172;SDS011;61388;54.962;73.394;2022-10-16T13:44:00;43.55;;;36.30;;
73172;SDS011;61388;54.962;73.394;2022-10-16T13:46:27;45.00;;;30.27;;
73172;SDS011;61388;54.962;73.394;2022-10-16T13:48:57;55.72;;;34.25;;
73172;SDS011;61388;54.962;73.394;2022-10-16T13:51:23;46.88;;;41.60;;
73172;SDS011;61388;54.962;73.394;2022-10-16T13:53:49;52.23;;;46.53;;
73172;SDS011;61388;54.962;73.394;2022-10-16T13:56:16;65.20;;;59.22;;
73172;SDS011;61388;54.962;73.394;2022-10-16T13:58:42;54.47;;;49.20;;
73172;SDS011;61388;54.962;73.394;2022-10-16T14:01:25;59.05;;;53.50;;
73172;SDS011;61388;54.962;73.394;2022-10-16T14:04:02;41.47;;;37.53;;
73172;SDS011;61388;54.962;73.394;2022-10-16T14:06:31;32.07;;;22.07;;
73172;SDS011;61388;54.962;73.394;2022-10-16T14:11:59;27.90;;;20.38;;
73172;SDS011;61388;54.962;73.394;2022-10-16T14:14:33;26.60;;;19.98;;
73172;SDS011;61388;54.962;73.394;2022-10-16T14:17:00;26.13;;;21.92;;
73172;SDS011;61388;54.962;73.394;2022-10-16T14:19:26;27.80;;;21.63;;
73172;SDS011;61388;54.962;73.394;2022-10-16T14:21:53;25.63;;;17.98;;
73172;SDS011;61388;54.962;73.394;2022-10-16T14:24:40;27.10;;;19.60;;
73172;SDS011;61388;54.962;73.394;2022-10-16T14:30:14;31.52;;;16.85;;
73172;SDS011;61388;54.962;73.394;2022-10-16T14:35:26;29.50;;;15.15;;
73172;SDS011;61388;54.962;73.394;2022-10-16T14:37:56;26.05;;;15.32;;
73172;SDS011;61388;54.962;73.394;2022-10-16T14:40:23;23.50;;;15.77;;
73172;SDS011;61388;54.962;73.394;2022-10-16T14:42:50;26.38;;;14.90;;
73172;SDS011;61388;54.962;73.394;2022-10-16T14:45:20;27.50;;;16.73;;
73172;SDS011;61388;54.962;73.394;2022-10-16T14:47:47;27.30;;;16.83;;
73172;SDS011;61388;54.962;73.394;2022-10-16T14:50:15;35.72;;;18.60;;
73172;SDS011;61388;54.962;73.394;2022-10-16T14:52:41;32.50;;;19.17;;
73172;SDS011;61388;54.962;73.394;2022-10-16T14:55:09;37.85;;;19.85;;
73172;SDS011;61388;54.962;73.394;2022-10-16T14:57:35;33.30;;;20.23;;
73172;SDS011;61388;54.962;73.394;2022-10-16T15:00:18;37.28;;;22.13;;
73172;SDS011;61388;54.962;73.394;2022-10-16T15:02:49;39.15;;;22.15;;
73172;SDS011;61388;54.962;73.394;2022-10-16T15:05:18;40.42;;;23.48;;
73172;SDS011;61388;54.962;73.394;2022-10-16T15:07:45;46.70;;;26.50;;
73172;SDS011;61388;54.962;73.394;2022-10-16T15:10:18;52.20;;;29.43;;
73172;SDS011;61388;54.962;73.394;2022-10-16T15:12:48;53.42;;;31.42;;
73172;SDS011;61388;54.962;73.394;2022-10-16T15:15:34;58.08;;;32.67;;
73172;SDS011;61388;54.962;73.394;2022-10-16T15:18:01;58.28;;;32.03;;
73172;SDS011;61388;54.962;73.394;2022-10-16T15:20:30;57.38;;;33.70;;
73172;SDS011;61388;54.962;73.394;2022-10-16T15:23:13;57.43;;;31.63;;
73172;SDS011;61388;54.962;73.394;2022-10-16T15:28:31;54.08;;;34.05;;
73172;SDS011;61388;54.962;73.394;2022-10-16T15:30:57;56.95;;;35.88;;
73172;SDS011;61388;54.962;73.394;2022-10-16T15:33:28;53.17;;;34.75;;
73172;SDS011;61388;54.962;73.394;2022-10-16T15:35:58;63.40;;;36.13;;
73172;SDS011;61388;54.962;73.394;2022-10-16T15:38:25;57.75;;;36.42;;
73172;SDS011;61388;54.962;73.394;2022-10-16T15:40:58;56.85;;;35.83;;
73172;SDS011;61388;54.962;73.394;2022-10-16T15:43:24;60.35;;;37.92;;
73172;SDS011;61388;54.962;73.394;2022-10-16T15:46:00;66.32;;;39.08;;
73172;SDS011;61388;54.962;73.394;2022-10-16T15:48:27;58.13;;;38.23;;
73172;SDS011;61388;54.962;73.394;2022-10-16T15:51:04;66.07;;;42.10;;
73172;SDS011;61388;54.962;73.394;2022-10-16T15:53:30;65.85;;;42.03;;
73172;SDS011;61388;54.962;73.394;2022-10-16T15:55:56;62.38;;;42.60;;
73172;SDS011;61388;54.962;73.394;2022-10-16T15:58:33;68.30;;;43.75;;
73172;SDS011;61388;54.962;73.394;2022-10-16T16:01:03;71.97;;;46.47;;
73172;SDS011;61388;54.962;73.394;2022-10-16T16:03:41;70.93;;;45.97;;
73172;SDS011;61388;54.962;73.394;2022-10-16T16:06:08;65.05;;;43.45;;
73172;SDS011;61388;54.962;73.394;2022-10-16T16:08:35;64.93;;;41.70;;